createdAt,value
2019-05-02T00:01:55.930Z,13.20
2019-05-02T00:04:23.103Z,13.43
2019-05-02T00:07:04.097Z,14.60
2019-05-02T00:09:33.564Z,14.20
2019-05-02T00:12:02.164Z,14.87
2019-05-02T00:14:29.589Z,13.30
2019-05-02T00:16:56.769Z,13.77
2019-05-02T00:19:23.971Z,11.60
2019-05-02T00:21:51.142Z,11.60
2019-05-02T00:24:18.324Z,10.27
2019-05-02T00:26:45.494Z,13.57
2019-05-02T00:29:12.696Z,15.30
2019-05-02T00:31:41.937Z,14.03
2019-05-02T00:34:08.800Z,13.50
2019-05-02T00:36:36.003Z,13.77
2019-05-02T00:39:09.680Z,12.27
2019-05-02T00:41:38.396Z,12.33
2019-05-02T00:44:05.982Z,11.13
2019-05-02T00:46:35.029Z,11.03
2019-05-02T00:49:01.904Z,10.60
2019-05-02T00:51:29.328Z,11.13
2019-05-02T00:53:56.527Z,10.17
2019-05-02T00:56:23.712Z,10.27
2019-05-02T00:58:50.889Z,12.57
2019-05-02T01:01:24.261Z,13.23
2019-05-02T01:03:51.999Z,13.27
2019-05-02T01:12:39.883Z,13.27
2019-05-02T01:15:08.279Z,12.40
2019-05-02T01:17:35.688Z,12.30
2019-05-02T01:20:03.286Z,10.20
2019-05-02T01:22:30.493Z,11.00
2019-05-02T01:24:57.764Z,10.23
2019-05-02T01:27:42.564Z,10.20
2019-05-02T01:30:11.723Z,10.17
2019-05-02T01:32:43.274Z,9.00
2019-05-02T01:35:17.966Z,8.83
2019-05-02T01:38:02.979Z,9.00
2019-05-02T01:40:30.211Z,8.77
2019-05-02T01:42:57.397Z,9.23
2019-05-02T01:45:24.598Z,8.30
2019-05-02T01:47:51.764Z,9.20
2019-05-02T01:50:18.944Z,8.87
2019-05-02T01:52:46.115Z,9.80
2019-05-02T01:55:17.158Z,9.40
2019-05-02T01:57:44.678Z,10.53
2019-05-02T02:00:12.674Z,8.47
2019-05-02T02:02:39.854Z,8.77
2019-05-02T02:05:07.037Z,9.37
2019-05-02T02:07:34.210Z,9.70
2019-05-02T02:10:01.387Z,9.87
2019-05-02T02:12:28.563Z,9.73
2019-05-02T02:14:55.761Z,9.20
2019-05-02T02:17:22.923Z,8.33
2019-05-02T02:19:51.771Z,8.27
2019-05-02T02:22:23.581Z,8.37
2019-05-02T02:24:56.039Z,8.60
2019-05-02T02:27:26.976Z,8.67
2019-05-02T02:29:54.920Z,7.33
2019-05-02T02:32:26.827Z,7.60
2019-05-02T02:34:51.082Z,7.30
2019-05-02T02:37:18.259Z,7.33
2019-05-02T02:39:48.685Z,6.93
2019-05-02T02:42:14.333Z,8.60
2019-05-02T02:44:45.848Z,7.47
2019-05-02T02:47:18.972Z,8.60
2019-05-02T02:49:41.951Z,8.90
2019-05-02T02:52:09.143Z,8.23
2019-05-02T02:54:42.751Z,8.17
2019-05-02T02:57:05.289Z,9.10
2019-05-02T02:59:32.462Z,9.87
2019-05-02T03:02:09.359Z,9.47
2019-05-02T03:04:28.538Z,8.67
2019-05-02T03:06:55.721Z,9.13
2019-05-02T03:09:26.685Z,8.13
2019-05-02T03:12:09.719Z,7.23
2019-05-02T03:14:40.940Z,6.30
2019-05-02T03:17:07.439Z,7.53
2019-05-02T03:19:34.626Z,8.43
2019-05-02T03:22:04.140Z,8.87
2019-05-02T03:24:36.760Z,8.00
2019-05-02T03:26:59.628Z,10.03
2019-05-02T03:29:39.769Z,9.07
2019-05-02T03:32:12.487Z,10.27
2019-05-02T03:34:24.658Z,10.10
2019-05-02T03:36:51.902Z,10.80
2019-05-02T03:39:19.154Z,10.90
2019-05-02T03:41:46.335Z,9.87
2019-05-02T03:44:25.190Z,10.93
2019-05-02T03:46:42.417Z,10.83
2019-05-02T03:49:10.003Z,9.80
2019-05-02T03:51:37.851Z,9.33
2019-05-02T03:54:07.648Z,9.00
2019-05-02T03:56:33.947Z,9.00
2019-05-02T03:59:01.122Z,9.33
2019-05-02T04:01:28.300Z,9.00
2019-05-02T04:03:55.482Z,8.73
2019-05-02T04:06:23.734Z,9.10
2019-05-02T04:08:59.281Z,8.80
2019-05-02T04:11:20.976Z,8.60
2019-05-02T04:13:48.189Z,7.60
2019-05-02T04:16:17.500Z,8.57
2019-05-02T04:18:55.016Z,8.03
2019-05-02T04:21:13.718Z,8.20
2019-05-02T04:23:40.900Z,8.17
2019-05-02T04:26:12.821Z,9.27
2019-05-02T04:28:36.994Z,7.27
2019-05-02T04:31:04.191Z,9.07
2019-05-02T04:33:35.043Z,8.87
2019-05-02T04:36:00.357Z,8.90
2019-05-02T04:38:38.755Z,9.07
2019-05-02T04:40:59.200Z,8.77
2019-05-02T04:43:28.596Z,8.33
2019-05-02T04:45:57.470Z,7.53
2019-05-02T04:48:23.181Z,6.53
2019-05-02T04:50:51.692Z,7.83
2019-05-02T04:53:25.839Z,7.57
2019-05-02T04:55:52.445Z,7.03
2019-05-02T04:58:24.375Z,6.87
2019-05-02T05:00:53.479Z,8.10
2019-05-02T05:03:15.815Z,7.57
2019-05-02T05:05:43.797Z,8.80
2019-05-02T05:08:10.991Z,7.00
2019-05-02T05:10:41.595Z,6.57
2019-05-02T05:13:07.797Z,6.40
2019-05-02T05:15:41.098Z,7.10
2019-05-02T05:18:04.537Z,6.23
2019-05-02T05:20:32.852Z,6.50
2019-05-02T05:23:00.019Z,5.90
2019-05-02T05:25:34.610Z,6.27
2019-05-02T05:28:05.898Z,6.57
2019-05-02T05:30:30.703Z,6.13
2019-05-02T05:32:58.355Z,6.97
2019-05-02T05:35:27.733Z,5.93
2019-05-02T05:37:54.845Z,6.30
2019-05-02T05:40:22.725Z,5.70
2019-05-02T05:42:50.920Z,6.47
2019-05-02T05:45:18.114Z,5.53
2019-05-02T05:47:45.266Z,5.47
2019-05-02T05:50:12.462Z,5.60
2019-05-02T05:52:42.422Z,5.80
2019-05-02T05:55:12.674Z,5.87
2019-05-02T05:57:38.496Z,5.33
2019-05-02T06:00:11.519Z,4.73
2019-05-02T06:02:50.849Z,4.57
2019-05-02T06:05:05.609Z,6.13
2019-05-02T06:07:33.108Z,5.47
2019-05-02T06:10:02.233Z,5.07
2019-05-02T06:12:35.129Z,5.70
2019-05-02T06:15:01.923Z,5.70
2019-05-02T06:17:30.356Z,5.73
2019-05-02T06:19:57.287Z,4.77
2019-05-02T06:22:25.654Z,6.03
2019-05-02T06:24:53.174Z,6.10
2019-05-02T06:27:20.928Z,6.57
2019-05-02T06:29:51.194Z,5.83
2019-05-02T06:32:19.228Z,6.20
2019-05-02T06:34:47.663Z,6.00
2019-05-02T06:37:15.461Z,6.40
2019-05-02T06:39:42.817Z,6.00
2019-05-02T06:42:10.004Z,5.17
2019-05-02T06:44:37.202Z,6.33
2019-05-02T06:47:05.606Z,6.13
2019-05-02T06:49:33.400Z,6.70
2019-05-02T06:52:00.587Z,6.60
2019-05-02T06:54:27.769Z,6.93
2019-05-02T06:56:54.970Z,6.83
2019-05-02T06:59:22.144Z,6.70
2019-05-02T07:01:52.287Z,6.60
2019-05-02T07:04:23.099Z,6.17
2019-05-02T07:06:58.113Z,6.40
2019-05-02T07:09:16.088Z,7.07
2019-05-02T07:11:56.398Z,6.93
2019-05-02T07:14:13.919Z,6.10
2019-05-02T07:16:49.695Z,7.13
2019-05-02T07:19:27.338Z,7.63
2019-05-02T07:21:58.552Z,6.90
2019-05-02T07:24:25.139Z,7.63
2019-05-02T07:26:52.164Z,7.43
2019-05-02T07:29:21.851Z,7.23
2019-05-02T07:31:49.718Z,8.30
2019-05-02T07:34:16.895Z,6.97
2019-05-02T07:36:44.076Z,8.07
2019-05-02T07:39:11.240Z,8.17
2019-05-02T07:41:38.429Z,8.43
2019-05-02T07:44:05.596Z,8.00
2019-05-02T07:46:32.793Z,8.47
2019-05-02T07:48:59.961Z,7.87
2019-05-02T07:51:27.146Z,8.27
2019-05-02T07:53:55.734Z,8.80
2019-05-02T07:56:23.374Z,7.83
2019-05-02T07:58:51.208Z,9.20
2019-05-02T08:01:18.377Z,8.77
2019-05-02T08:03:45.577Z,7.97
2019-05-02T08:06:12.816Z,8.50
2019-05-02T08:08:39.997Z,7.83
2019-05-02T08:11:07.192Z,7.40
2019-05-02T08:13:34.444Z,10.13
2019-05-02T08:16:01.692Z,9.00
2019-05-02T08:18:30.402Z,10.97
2019-05-02T08:20:58.162Z,11.30
2019-05-02T08:23:26.372Z,10.90
2019-05-02T08:25:54.250Z,10.10
2019-05-02T08:28:31.827Z,9.30
2019-05-02T08:30:59.016Z,9.30
2019-05-02T08:33:29.129Z,9.63
2019-05-02T08:35:56.035Z,9.53
2019-05-02T08:38:23.245Z,10.07
2019-05-02T08:40:50.421Z,10.13
2019-05-02T08:43:17.602Z,10.27
2019-05-02T08:45:44.773Z,11.73
2019-05-02T08:48:11.961Z,11.33
2019-05-02T08:50:39.138Z,10.80
2019-05-02T08:53:06.327Z,10.77
2019-05-02T08:55:33.531Z,10.57
2019-05-02T08:58:00.708Z,9.93
2019-05-02T09:00:32.134Z,11.20
2019-05-02T09:02:57.182Z,11.33
2019-05-02T09:05:25.716Z,10.27
2019-05-02T09:07:52.878Z,10.27
2019-05-02T09:10:20.082Z,10.43
2019-05-02T09:12:47.262Z,10.93
2019-05-02T09:15:14.436Z,10.53
2019-05-02T09:17:46.153Z,10.40
2019-05-02T09:20:15.930Z,11.47
2019-05-02T09:22:39.451Z,10.10
2019-05-02T09:25:06.910Z,11.73
2019-05-02T09:27:34.077Z,11.13
2019-05-02T09:30:02.730Z,12.47
2019-05-02T09:32:32.179Z,11.90
2019-05-02T09:35:02.295Z,11.77
2019-05-02T09:37:27.995Z,12.40
2019-05-02T09:39:55.161Z,11.53
2019-05-02T09:42:22.353Z,11.43
2019-05-02T09:44:55.726Z,11.20
2019-05-02T09:47:22.298Z,11.30
2019-05-02T09:49:53.072Z,11.77
2019-05-02T09:52:22.132Z,11.17
2019-05-02T09:54:48.974Z,13.03
2019-05-02T09:57:16.160Z,12.30
2019-05-02T09:59:50.348Z,13.90
2019-05-02T10:02:12.665Z,12.80
2019-05-02T10:04:42.094Z,11.90
2019-05-02T10:07:08.814Z,12.57
2019-05-02T10:09:36.020Z,12.40
2019-05-02T10:12:03.250Z,12.43
2019-05-02T10:14:32.837Z,13.10
2019-05-02T10:17:03.060Z,11.23
2019-05-02T10:19:28.322Z,12.97
2019-05-02T10:21:56.485Z,12.53
2019-05-02T10:24:24.359Z,13.23
2019-05-02T10:26:55.276Z,12.90
2019-05-02T10:29:28.095Z,12.70
2019-05-02T10:31:52.456Z,12.73
2019-05-02T10:34:19.058Z,14.37
2019-05-02T10:36:46.562Z,13.13
2019-05-02T10:39:15.862Z,12.03
2019-05-02T10:41:43.742Z,13.03
2019-05-02T10:44:12.827Z,13.67
2019-05-02T10:46:44.625Z,12.93
2019-05-02T10:49:22.673Z,13.27
2019-05-02T10:51:53.671Z,12.60
2019-05-02T10:54:23.043Z,12.50
2019-05-02T10:56:51.714Z,12.87
2019-05-02T10:59:18.535Z,14.10
2019-05-02T11:02:03.529Z,14.13
2019-05-02T11:04:32.440Z,12.30
2019-05-02T11:07:02.483Z,13.00
2019-05-02T11:09:29.158Z,12.70
2019-05-02T11:11:56.359Z,12.70
2019-05-02T11:14:42.191Z,13.83
2019-05-02T11:17:26.361Z,11.93
2019-05-02T11:19:55.252Z,12.97
2019-05-02T11:22:22.803Z,14.03
2019-05-02T11:24:52.133Z,13.67
2019-05-02T11:27:19.126Z,13.67
2019-05-02T11:29:46.305Z,12.97
2019-05-02T11:32:13.511Z,13.53
2019-05-02T11:34:42.067Z,12.20
2019-05-02T11:37:09.683Z,13.10
2019-05-02T11:39:45.116Z,12.63
2019-05-02T11:42:05.782Z,13.53
2019-05-02T11:44:33.051Z,13.17
2019-05-02T11:47:01.977Z,14.40
2019-05-02T11:49:29.142Z,12.70
2019-05-02T11:51:57.303Z,12.20
2019-05-02T11:54:27.551Z,12.47
2019-05-02T11:56:53.788Z,12.67
2019-05-02T11:59:27.726Z,12.07
2019-05-02T12:01:59.704Z,13.17
2019-05-02T12:04:23.184Z,13.53
2019-05-02T12:07:01.142Z,12.23
2019-05-02T12:09:19.730Z,13.63
2019-05-02T12:11:47.342Z,12.27
2019-05-02T12:14:15.837Z,10.70
2019-05-02T12:16:43.177Z,12.03
2019-05-02T12:19:14.359Z,13.27
2019-05-02T12:21:39.675Z,10.57
2019-05-02T12:24:06.856Z,12.03
2019-05-02T12:26:34.130Z,11.93
2019-05-02T12:29:02.647Z,13.37
2019-05-02T12:31:32.182Z,11.60
2019-05-02T12:34:02.681Z,12.43
2019-05-02T12:36:29.710Z,11.90
2019-05-02T12:38:56.906Z,11.97
2019-05-02T12:41:25.301Z,11.67
2019-05-02T12:43:52.764Z,12.63
2019-05-02T12:46:22.005Z,12.43
2019-05-02T12:48:48.963Z,12.40
2019-05-02T12:51:16.137Z,13.03
2019-05-02T12:53:43.318Z,10.53
2019-05-02T12:56:11.952Z,11.23
2019-05-02T12:58:39.402Z,11.17
2019-05-02T13:01:06.612Z,10.63
2019-05-02T13:03:44.187Z,10.13
2019-05-02T13:06:12.290Z,10.30
2019-05-02T13:08:49.516Z,9.30
2019-05-02T13:11:22.674Z,9.47
2019-05-02T13:13:49.866Z,10.70
2019-05-02T13:16:17.058Z,8.97
2019-05-02T13:18:44.279Z,9.53
2019-05-02T13:21:16.867Z,8.93
2019-05-02T13:24:02.517Z,8.73
2019-05-02T13:26:29.802Z,9.23
2019-05-02T13:28:56.982Z,8.50
2019-05-02T13:31:25.806Z,9.83
2019-05-02T13:33:57.291Z,9.57
2019-05-02T13:36:45.896Z,8.50
2019-05-02T13:39:15.650Z,8.43
2019-05-02T13:41:42.884Z,8.90
2019-05-02T13:44:12.850Z,8.33
2019-05-02T13:46:41.952Z,8.43
2019-05-02T13:49:09.073Z,8.50
2019-05-02T13:51:36.562Z,9.27
2019-05-02T13:54:12.419Z,8.77
2019-05-02T13:56:48.427Z,8.33
2019-05-02T13:59:15.614Z,9.03
2019-05-02T14:01:42.790Z,9.33
2019-05-02T14:04:11.690Z,8.63
2019-05-02T14:06:38.854Z,9.17
2019-05-02T14:09:25.423Z,10.13
2019-05-02T14:12:06.330Z,9.57
2019-05-02T14:14:33.522Z,10.03
2019-05-02T14:17:02.835Z,10.27
2019-05-02T14:19:29.615Z,10.67
2019-05-02T14:21:56.797Z,10.90
2019-05-02T14:24:23.977Z,10.13
2019-05-02T14:26:52.568Z,10.40
2019-05-02T14:29:21.694Z,10.60
2019-05-02T14:31:49.306Z,11.63
2019-05-02T14:34:27.370Z,11.40
2019-05-02T14:36:59.250Z,12.00
2019-05-02T14:39:23.488Z,11.70
2019-05-02T14:41:52.466Z,11.90
2019-05-02T14:44:23.396Z,11.80
2019-05-02T14:46:48.497Z,9.63
2019-05-02T14:49:16.711Z,10.97
2019-05-02T14:51:44.617Z,11.80
2019-05-02T14:54:12.159Z,11.87
2019-05-02T14:56:47.941Z,12.70
2019-05-02T14:59:19.847Z,11.23
2019-05-02T15:01:47.079Z,12.37
2019-05-02T15:04:14.926Z,12.63
2019-05-02T15:06:43.566Z,13.07
2019-05-02T15:09:12.072Z,12.33
2019-05-02T15:11:57.931Z,12.67
2019-05-02T15:14:27.742Z,14.17
2019-05-02T15:16:58.225Z,11.90
2019-05-02T15:19:24.070Z,12.97
2019-05-02T15:21:54.417Z,12.73
2019-05-02T15:24:20.186Z,13.10
2019-05-02T15:26:48.649Z,13.43
2019-05-02T15:29:19.789Z,13.87
2019-05-02T15:31:49.408Z,13.43
2019-05-02T15:34:46.257Z,12.90
2019-05-02T15:37:05.066Z,15.07
2019-05-02T15:42:01.768Z,13.60
2019-05-02T15:44:29.115Z,13.00
2019-05-02T15:46:58.524Z,12.57
2019-05-02T15:49:25.207Z,13.33
2019-05-02T15:51:52.487Z,13.60
2019-05-02T15:54:20.903Z,14.00
2019-05-02T15:57:00.436Z,13.67
2019-05-02T15:59:44.869Z,13.90
2019-05-02T16:02:06.127Z,14.03
2019-05-02T16:04:37.621Z,13.03
2019-05-02T16:07:08.451Z,15.13
2019-05-02T16:09:33.794Z,12.87
2019-05-02T16:12:00.966Z,14.13
2019-05-02T16:14:34.096Z,14.93
2019-05-02T16:16:57.078Z,13.27
2019-05-02T16:19:29.328Z,14.83
2019-05-02T16:21:59.431Z,14.17
2019-05-02T16:24:27.383Z,14.30
2019-05-02T16:26:56.968Z,11.77
2019-05-02T16:29:28.078Z,13.73
2019-05-02T16:31:59.692Z,15.70
2019-05-02T16:34:27.445Z,13.43
2019-05-02T16:36:56.130Z,15.40
2019-05-02T16:39:23.314Z,14.20
2019-05-02T16:41:52.519Z,14.53
2019-05-02T16:44:19.454Z,15.33
2019-05-02T16:46:46.635Z,15.00
2019-05-02T16:49:18.493Z,15.07
2019-05-02T16:51:43.113Z,15.43
2019-05-02T16:54:12.719Z,13.50
2019-05-02T16:56:42.412Z,15.40
2019-05-02T16:59:09.161Z,15.57
2019-05-02T17:01:36.347Z,13.27
2019-05-02T17:04:06.721Z,14.63
2019-05-02T17:06:33.714Z,14.90
2019-05-02T17:09:21.578Z,14.77
2019-05-02T17:11:48.266Z,15.47
2019-05-02T17:14:15.448Z,14.63
2019-05-02T17:16:46.964Z,15.03
2019-05-02T17:19:12.361Z,14.00
2019-05-02T17:21:52.741Z,14.73
2019-05-02T17:24:09.115Z,15.17
2019-05-02T17:26:36.292Z,15.40
2019-05-02T17:29:03.664Z,14.97
2019-05-02T17:31:32.264Z,15.13
2019-05-02T17:33:59.906Z,13.57
2019-05-02T17:36:28.621Z,13.93
2019-05-02T17:38:59.252Z,15.63
2019-05-02T17:41:24.887Z,16.67
2019-05-02T17:43:52.067Z,15.37
2019-05-02T17:46:21.925Z,15.53
2019-05-02T17:48:52.798Z,15.93
2019-05-02T17:51:18.717Z,16.70
2019-05-02T17:53:49.832Z,16.10
2019-05-02T17:56:20.870Z,15.47
2019-05-02T17:58:47.416Z,17.10
2019-05-02T18:01:14.427Z,16.13
2019-05-02T18:03:42.583Z,17.47
2019-05-02T18:06:12.618Z,15.93
2019-05-02T18:08:38.896Z,15.77
2019-05-02T18:11:06.097Z,15.43
2019-05-02T18:13:33.922Z,15.67
2019-05-02T18:16:02.813Z,17.30
2019-05-02T18:18:31.944Z,17.03
2019-05-02T18:20:59.607Z,17.07
2019-05-02T18:23:27.719Z,18.37
2019-05-02T18:25:57.417Z,17.87
2019-05-02T18:28:26.456Z,18.90
2019-05-02T18:30:57.219Z,18.70
2019-05-02T18:33:22.741Z,17.90
2019-05-02T18:35:50.103Z,18.20
2019-05-02T18:38:20.927Z,19.63
2019-05-02T18:40:46.319Z,17.87
2019-05-02T18:43:13.573Z,18.80
2019-05-02T18:45:42.472Z,19.17
2019-05-02T18:48:09.827Z,19.17
2019-05-02T18:50:46.395Z,19.43
2019-05-02T18:53:10.036Z,20.07
2019-05-02T18:55:37.266Z,20.43
2019-05-02T18:58:05.662Z,18.67
2019-05-02T19:00:37.756Z,18.33
2019-05-02T19:03:02.751Z,18.80
2019-05-02T19:05:30.257Z,18.57
2019-05-02T19:07:57.707Z,19.23
2019-05-02T19:10:24.951Z,19.77
2019-05-02T19:12:56.087Z,20.47
2019-05-02T19:15:21.653Z,19.07
2019-05-02T19:17:49.124Z,20.30
2019-05-02T19:20:22.157Z,19.80
2019-05-02T19:22:54.711Z,19.60
2019-05-02T19:25:18.758Z,20.13
2019-05-02T19:27:57.701Z,18.47
2019-05-02T19:30:32.504Z,19.00
2019-05-02T19:33:03.727Z,17.77
2019-05-02T19:35:29.273Z,17.10
2019-05-02T19:37:56.443Z,17.57
2019-05-02T19:40:27.211Z,17.30
2019-05-02T19:42:57.293Z,16.40
2019-05-02T19:45:22.312Z,18.07
2019-05-02T19:47:54.333Z,17.00
2019-05-02T19:50:32.268Z,18.20
2019-05-02T19:53:01.975Z,17.13
2019-05-02T19:55:27.495Z,17.80
2019-05-02T19:57:56.680Z,17.20
2019-05-02T20:00:24.215Z,17.47
2019-05-02T20:02:52.280Z,18.37
2019-05-02T20:05:24.117Z,17.43
2019-05-02T20:07:48.876Z,16.60
2019-05-02T20:10:17.926Z,15.93
2019-05-02T20:12:48.382Z,15.27
2019-05-02T20:15:21.921Z,14.23
2019-05-02T20:17:44.776Z,13.90
2019-05-02T20:20:18.082Z,14.10
2019-05-02T20:22:45.263Z,14.10
2019-05-02T20:25:12.624Z,14.30
2019-05-02T20:27:42.058Z,11.93
2019-05-02T20:30:09.045Z,12.07
2019-05-02T20:32:36.249Z,10.80
2019-05-02T20:35:03.929Z,11.07
2019-05-02T20:37:32.460Z,10.40
2019-05-02T20:39:59.842Z,11.10
2019-05-02T20:42:27.027Z,9.53
2019-05-02T20:44:54.218Z,7.20
2019-05-02T20:47:26.788Z,6.50
2019-05-02T20:49:51.900Z,6.80
2019-05-02T20:52:24.083Z,7.60
2019-05-02T20:54:52.355Z,6.80
2019-05-02T20:57:20.230Z,7.37
2019-05-02T20:59:47.439Z,7.47
2019-05-02T21:02:14.625Z,6.83
2019-05-02T21:04:42.611Z,6.17
2019-05-02T21:07:11.712Z,7.80
2019-05-02T21:09:41.884Z,8.50
2019-05-02T21:12:09.183Z,7.20
2019-05-02T21:14:36.363Z,8.17
2019-05-02T21:17:04.379Z,6.60
2019-05-02T21:19:32.408Z,6.07
2019-05-02T21:22:01.446Z,5.60
2019-05-02T21:24:28.627Z,6.33
2019-05-02T21:26:55.893Z,6.23
2019-05-02T21:29:23.143Z,5.37
2019-05-02T21:31:51.936Z,5.47
2019-05-02T21:34:19.231Z,5.80
2019-05-02T21:36:46.389Z,5.40
2019-05-02T21:39:13.558Z,5.10
2019-05-02T21:41:42.357Z,5.07
2019-05-02T21:44:09.700Z,5.10
2019-05-02T21:46:36.878Z,5.13
2019-05-02T21:49:04.178Z,5.07
2019-05-02T21:51:33.339Z,4.63
2019-05-02T21:54:02.985Z,3.93
2019-05-02T21:56:52.094Z,4.63
2019-05-02T21:59:19.216Z,4.07
2019-05-02T22:01:48.815Z,3.67
2019-05-02T22:04:16.071Z,3.17
2019-05-02T22:06:43.293Z,3.07
2019-05-02T22:09:13.734Z,3.20
2019-05-02T22:11:42.960Z,3.23
2019-05-02T22:14:10.149Z,2.83
2019-05-02T22:16:37.355Z,3.10
2019-05-02T22:19:08.147Z,2.90
2019-05-02T22:21:35.350Z,2.50
2019-05-02T22:24:11.083Z,2.33
2019-05-02T22:26:32.856Z,2.47
2019-05-02T22:29:01.987Z,2.07
2019-05-02T22:31:29.466Z,2.53
2019-05-02T22:33:56.643Z,2.57
2019-05-02T22:36:23.803Z,2.07
2019-05-02T22:38:52.868Z,2.30
2019-05-02T22:41:22.044Z,2.37
2019-05-02T22:43:49.001Z,2.27
2019-05-02T22:46:33.930Z,2.23
2019-05-02T22:49:02.356Z,1.67
2019-05-02T22:51:31.981Z,2.43
2019-05-02T22:53:58.910Z,1.93
2019-05-02T22:56:26.106Z,1.73
2019-05-02T22:58:53.274Z,2.63
2019-05-02T23:01:21.600Z,2.67
2019-05-02T23:03:49.313Z,2.40
2019-05-02T23:06:16.579Z,2.10
2019-05-02T23:08:43.748Z,1.70
2019-05-02T23:11:12.858Z,1.80
2019-05-02T23:13:39.818Z,2.20
2019-05-02T23:16:06.986Z,2.27
2019-05-02T23:18:34.175Z,1.70
2019-05-02T23:21:02.106Z,1.57
2019-05-02T23:23:29.805Z,1.80
2019-05-02T23:26:15.119Z,1.80
2019-05-02T23:28:52.742Z,1.80
2019-05-02T23:31:19.914Z,2.33
2019-05-02T23:34:02.035Z,2.83
2019-05-02T23:36:32.250Z,1.83
2019-05-02T23:39:01.723Z,1.80
2019-05-02T23:41:28.762Z,2.57
2019-05-02T23:43:55.923Z,2.17
2019-05-02T23:46:23.106Z,1.60
2019-05-02T23:48:52.532Z,1.90
2019-05-02T23:51:19.183Z,1.97
2019-05-02T23:53:46.355Z,1.60
2019-05-02T23:56:13.514Z,1.80
2019-05-02T23:58:42.524Z,1.80
